sensor_id;sensor_type;location;lat;lon;timestamp;temperature;humidity
20045;DHT22;10183;47.808;9.476;2023-08-08T00:00:31;10.10;99.90
20045;DHT22;10183;47.808;9.476;2023-08-08T00:02:57;10.00;99.90
20045;DHT22;10183;47.808;9.476;2023-08-08T00:05:24;10.00;99.90
20045;DHT22;10183;47.808;9.476;2023-08-08T00:07:50;10.00;99.90
20045;DHT22;10183;47.808;9.476;2023-08-08T00:10:17;10.00;99.90
20045;DHT22;10183;47.808;9.476;2023-08-08T00:12:43;10.00;99.90
20045;DHT22;10183;47.808;9.476;2023-08-08T00:15:09;10.00;99.90
20045;DHT22;10183;47.808;9.476;2023-08-08T00:17:36;10.10;99.90
20045;DHT22;10183;47.808;9.476;2023-08-08T00:20:03;10.10;99.90
20045;DHT22;10183;47.808;9.476;2023-08-08T00:22:29;10.10;99.90
20045;DHT22;10183;47.808;9.476;2023-08-08T00:24:56;10.10;99.90
20045;DHT22;10183;47.808;9.476;2023-08-08T00:27:23;10.10;99.90
20045;DHT22;10183;47.808;9.476;2023-08-08T00:29:49;10.20;99.90
20045;DHT22;10183;47.808;9.476;2023-08-08T00:32:16;10.20;99.90
20045;DHT22;10183;47.808;9.476;2023-08-08T00:34:43;10.20;99.90
20045;DHT22;10183;47.808;9.476;2023-08-08T00:37:10;10.10;99.90
20045;DHT22;10183;47.808;9.476;2023-08-08T00:39:37;10.10;99.90
20045;DHT22;10183;47.808;9.476;2023-08-08T00:42:03;10.00;99.90
20045;DHT22;10183;47.808;9.476;2023-08-08T00:44:29;10.00;99.90
20045;DHT22;10183;47.808;9.476;2023-08-08T00:46:56;9.90;99.90
20045;DHT22;10183;47.808;9.476;2023-08-08T00:49:23;9.90;99.90
20045;DHT22;10183;47.808;9.476;2023-08-08T00:51:49;9.90;99.90
20045;DHT22;10183;47.808;9.476;2023-08-08T00:54:16;9.90;99.90
20045;DHT22;10183;47.808;9.476;2023-08-08T00:56:42;9.80;99.90
20045;DHT22;10183;47.808;9.476;2023-08-08T00:59:08;9.80;99.90
20045;DHT22;10183;47.808;9.476;2023-08-08T01:01:37;9.70;99.90
20045;DHT22;10183;47.808;9.476;2023-08-08T01:04:03;9.70;99.90
20045;DHT22;10183;47.808;9.476;2023-08-08T01:11:42;9.60;99.90
20045;DHT22;10183;47.808;9.476;2023-08-08T01:14:10;9.60;99.90
20045;DHT22;10183;47.808;9.476;2023-08-08T01:16:37;9.60;99.90
20045;DHT22;10183;47.808;9.476;2023-08-08T01:19:04;9.60;99.90
20045;DHT22;10183;47.808;9.476;2023-08-08T01:21:34;9.60;99.90
20045;DHT22;10183;47.808;9.476;2023-08-08T01:26:45;9.60;99.90
20045;DHT22;10183;47.808;9.476;2023-08-08T01:29:11;9.60;99.90
20045;DHT22;10183;47.808;9.476;2023-08-08T01:31:37;9.60;99.90
20045;DHT22;10183;47.808;9.476;2023-08-08T01:34:04;9.50;99.90
20045;DHT22;10183;47.808;9.476;2023-08-08T01:39:13;9.50;99.90
20045;DHT22;10183;47.808;9.476;2023-08-08T01:41:40;9.50;99.90
20045;DHT22;10183;47.808;9.476;2023-08-08T01:44:07;9.50;99.90
20045;DHT22;10183;47.808;9.476;2023-08-08T01:46:33;9.60;99.90
20045;DHT22;10183;47.808;9.476;2023-08-08T01:49:00;9.60;99.90
20045;DHT22;10183;47.808;9.476;2023-08-08T01:51:27;9.60;99.90
20045;DHT22;10183;47.808;9.476;2023-08-08T01:53:53;9.60;99.90
20045;DHT22;10183;47.808;9.476;2023-08-08T01:56:19;9.50;99.90
20045;DHT22;10183;47.808;9.476;2023-08-08T01:58:45;9.50;99.90
20045;DHT22;10183;47.808;9.476;2023-08-08T02:01:12;9.40;99.90
20045;DHT22;10183;47.808;9.476;2023-08-08T02:03:38;9.40;99.90
20045;DHT22;10183;47.808;9.476;2023-08-08T02:06:04;9.30;99.90
20045;DHT22;10183;47.808;9.476;2023-08-08T02:08:30;9.20;99.90
20045;DHT22;10183;47.808;9.476;2023-08-08T02:10:56;9.20;99.90
20045;DHT22;10183;47.808;9.476;2023-08-08T02:13:22;9.10;99.90
20045;DHT22;10183;47.808;9.476;2023-08-08T02:15:48;9.10;99.90
20045;DHT22;10183;47.808;9.476;2023-08-08T02:18:15;9.00;99.90
20045;DHT22;10183;47.808;9.476;2023-08-08T02:20:41;8.90;99.90
20045;DHT22;10183;47.808;9.476;2023-08-08T02:23:07;8.90;99.90
20045;DHT22;10183;47.808;9.476;2023-08-08T02:25:33;8.90;99.90
20045;DHT22;10183;47.808;9.476;2023-08-08T02:27:59;8.90;99.90
20045;DHT22;10183;47.808;9.476;2023-08-08T02:30:25;9.00;99.90
20045;DHT22;10183;47.808;9.476;2023-08-08T02:32:51;9.00;99.90
20045;DHT22;10183;47.808;9.476;2023-08-08T02:35:19;9.00;99.90
20045;DHT22;10183;47.808;9.476;2023-08-08T02:37:45;8.90;99.90
20045;DHT22;10183;47.808;9.476;2023-08-08T02:40:11;8.80;99.90
20045;DHT22;10183;47.808;9.476;2023-08-08T02:42:37;8.80;99.90
20045;DHT22;10183;47.808;9.476;2023-08-08T02:45:04;8.90;99.90
20045;DHT22;10183;47.808;9.476;2023-08-08T02:47:30;8.80;99.90
20045;DHT22;10183;47.808;9.476;2023-08-08T02:49:56;8.70;99.90
20045;DHT22;10183;47.808;9.476;2023-08-08T02:52:22;8.50;99.90
20045;DHT22;10183;47.808;9.476;2023-08-08T02:54:49;8.40;99.90
20045;DHT22;10183;47.808;9.476;2023-08-08T02:57:15;8.30;99.90
20045;DHT22;10183;47.808;9.476;2023-08-08T02:59:42;8.30;99.90
20045;DHT22;10183;47.808;9.476;2023-08-08T03:02:08;8.20;99.90
20045;DHT22;10183;47.808;9.476;2023-08-08T03:04:34;8.20;99.90
20045;DHT22;10183;47.808;9.476;2023-08-08T03:07:00;8.10;99.90
20045;DHT22;10183;47.808;9.476;2023-08-08T03:09:30;8.30;99.90
20045;DHT22;10183;47.808;9.476;2023-08-08T03:11:56;8.30;99.90
20045;DHT22;10183;47.808;9.476;2023-08-08T03:14:22;8.30;99.90
20045;DHT22;10183;47.808;9.476;2023-08-08T03:16:48;8.20;99.90
20045;DHT22;10183;47.808;9.476;2023-08-08T03:19:15;8.10;99.90
20045;DHT22;10183;47.808;9.476;2023-08-08T03:21:41;8.00;99.90
20045;DHT22;10183;47.808;9.476;2023-08-08T03:24:07;8.00;99.90
20045;DHT22;10183;47.808;9.476;2023-08-08T03:26:33;8.10;99.90
20045;DHT22;10183;47.808;9.476;2023-08-08T03:28:59;7.90;99.90
20045;DHT22;10183;47.808;9.476;2023-08-08T03:31:25;8.00;99.90
20045;DHT22;10183;47.808;9.476;2023-08-08T03:33:53;8.00;99.90
20045;DHT22;10183;47.808;9.476;2023-08-08T03:36:19;8.00;99.90
20045;DHT22;10183;47.808;9.476;2023-08-08T03:38:46;8.00;99.90
20045;DHT22;10183;47.808;9.476;2023-08-08T03:41:13;8.10;99.90
20045;DHT22;10183;47.808;9.476;2023-08-08T03:43:39;8.20;99.90
20045;DHT22;10183;47.808;9.476;2023-08-08T03:46:12;8.10;99.90
20045;DHT22;10183;47.808;9.476;2023-08-08T03:48:38;8.10;99.90
20045;DHT22;10183;47.808;9.476;2023-08-08T03:51:05;8.10;99.90
20045;DHT22;10183;47.808;9.476;2023-08-08T03:53:33;8.00;99.90
20045;DHT22;10183;47.808;9.476;2023-08-08T03:55:59;8.00;99.90
20045;DHT22;10183;47.808;9.476;2023-08-08T03:58:25;8.00;99.90
20045;DHT22;10183;47.808;9.476;2023-08-08T04:00:52;7.90;99.90
20045;DHT22;10183;47.808;9.476;2023-08-08T04:03:18;8.00;99.90
20045;DHT22;10183;47.808;9.476;2023-08-08T04:05:45;8.00;99.90
20045;DHT22;10183;47.808;9.476;2023-08-08T04:08:13;8.00;99.90
20045;DHT22;10183;47.808;9.476;2023-08-08T04:10:40;7.90;99.90
20045;DHT22;10183;47.808;9.476;2023-08-08T04:13:06;8.10;99.90
20045;DHT22;10183;47.808;9.476;2023-08-08T04:15:32;8.20;99.90
20045;DHT22;10183;47.808;9.476;2023-08-08T04:17:58;8.20;99.90
20045;DHT22;10183;47.808;9.476;2023-08-08T04:20:24;8.10;99.90
20045;DHT22;10183;47.808;9.476;2023-08-08T04:22:50;8.20;99.90
20045;DHT22;10183;47.808;9.476;2023-08-08T04:25:17;8.30;99.90
20045;DHT22;10183;47.808;9.476;2023-08-08T04:27:43;8.30;99.90
20045;DHT22;10183;47.808;9.476;2023-08-08T04:30:09;8.40;99.90
20045;DHT22;10183;47.808;9.476;2023-08-08T04:32:35;8.30;99.90
20045;DHT22;10183;47.808;9.476;2023-08-08T04:35:02;8.30;99.90
20045;DHT22;10183;47.808;9.476;2023-08-08T04:37:28;8.30;99.90
20045;DHT22;10183;47.808;9.476;2023-08-08T04:39:54;8.30;99.90
20045;DHT22;10183;47.808;9.476;2023-08-08T04:42:20;8.30;99.90
20045;DHT22;10183;47.808;9.476;2023-08-08T04:44:46;8.30;99.90
20045;DHT22;10183;47.808;9.476;2023-08-08T04:47:12;8.40;99.90
20045;DHT22;10183;47.808;9.476;2023-08-08T04:49:39;8.40;99.90
20045;DHT22;10183;47.808;9.476;2023-08-08T04:52:05;8.40;99.90
20045;DHT22;10183;47.808;9.476;2023-08-08T04:54:31;8.50;99.90
20045;DHT22;10183;47.808;9.476;2023-08-08T04:56:57;8.50;99.90
20045;DHT22;10183;47.808;9.476;2023-08-08T04:59:24;8.60;99.90
20045;DHT22;10183;47.808;9.476;2023-08-08T05:01:50;8.70;99.90
20045;DHT22;10183;47.808;9.476;2023-08-08T05:04:17;8.70;99.90
20045;DHT22;10183;47.808;9.476;2023-08-08T05:06:44;8.80;99.90
20045;DHT22;10183;47.808;9.476;2023-08-08T05:09:10;9.00;99.90
20045;DHT22;10183;47.808;9.476;2023-08-08T05:11:37;9.10;99.90
20045;DHT22;10183;47.808;9.476;2023-08-08T05:14:03;9.20;99.90
20045;DHT22;10183;47.808;9.476;2023-08-08T05:16:29;9.30;99.90
20045;DHT22;10183;47.808;9.476;2023-08-08T05:18:55;9.40;99.90
20045;DHT22;10183;47.808;9.476;2023-08-08T05:21:21;9.50;99.90
20045;DHT22;10183;47.808;9.476;2023-08-08T05:23:48;9.70;99.90
20045;DHT22;10183;47.808;9.476;2023-08-08T05:26:15;9.70;99.90
20045;DHT22;10183;47.808;9.476;2023-08-08T05:28:41;9.90;99.90
20045;DHT22;10183;47.808;9.476;2023-08-08T05:31:07;9.90;99.90
20045;DHT22;10183;47.808;9.476;2023-08-08T05:33:33;10.00;99.90
20045;DHT22;10183;47.808;9.476;2023-08-08T05:35:59;10.00;99.90
20045;DHT22;10183;47.808;9.476;2023-08-08T05:38:26;10.00;99.90
20045;DHT22;10183;47.808;9.476;2023-08-08T05:40:52;10.10;99.90
20045;DHT22;10183;47.808;9.476;2023-08-08T05:43:18;10.20;99.90
20045;DHT22;10183;47.808;9.476;2023-08-08T05:45:45;10.20;99.90
20045;DHT22;10183;47.808;9.476;2023-08-08T05:48:11;10.20;99.90
20045;DHT22;10183;47.808;9.476;2023-08-08T05:50:40;10.30;99.90
20045;DHT22;10183;47.808;9.476;2023-08-08T05:53:07;10.40;99.90
20045;DHT22;10183;47.808;9.476;2023-08-08T05:55:33;10.30;99.90
20045;DHT22;10183;47.808;9.476;2023-08-08T05:57:59;10.30;99.90
20045;DHT22;10183;47.808;9.476;2023-08-08T06:00:26;10.40;99.90
20045;DHT22;10183;47.808;9.476;2023-08-08T06:02:52;10.50;99.90
20045;DHT22;10183;47.808;9.476;2023-08-08T06:05:19;10.60;99.90
20045;DHT22;10183;47.808;9.476;2023-08-08T06:07:46;10.60;99.90
20045;DHT22;10183;47.808;9.476;2023-08-08T06:10:13;10.70;99.90
20045;DHT22;10183;47.808;9.476;2023-08-08T06:12:39;10.70;99.90
20045;DHT22;10183;47.808;9.476;2023-08-08T06:15:06;10.70;99.90
20045;DHT22;10183;47.808;9.476;2023-08-08T06:17:32;10.80;99.90
20045;DHT22;10183;47.808;9.476;2023-08-08T06:19:58;10.90;99.90
20045;DHT22;10183;47.808;9.476;2023-08-08T06:22:24;11.10;99.90
20045;DHT22;10183;47.808;9.476;2023-08-08T06:24:51;11.10;99.90
20045;DHT22;10183;47.808;9.476;2023-08-08T06:27:18;11.10;99.90
20045;DHT22;10183;47.808;9.476;2023-08-08T06:29:44;11.20;99.90
20045;DHT22;10183;47.808;9.476;2023-08-08T06:32:10;11.30;99.90
20045;DHT22;10183;47.808;9.476;2023-08-08T06:34:36;11.30;99.90
20045;DHT22;10183;47.808;9.476;2023-08-08T06:37:03;11.30;99.90
20045;DHT22;10183;47.808;9.476;2023-08-08T06:39:29;11.40;99.90
20045;DHT22;10183;47.808;9.476;2023-08-08T06:41:55;11.50;99.90
20045;DHT22;10183;47.808;9.476;2023-08-08T06:44:21;11.70;99.90
20045;DHT22;10183;47.808;9.476;2023-08-08T06:46:47;11.80;99.90
20045;DHT22;10183;47.808;9.476;2023-08-08T06:49:14;11.90;99.90
20045;DHT22;10183;47.808;9.476;2023-08-08T06:51:40;12.00;99.90
20045;DHT22;10183;47.808;9.476;2023-08-08T06:54:06;12.10;99.90
20045;DHT22;10183;47.808;9.476;2023-08-08T06:56:33;12.10;99.90
20045;DHT22;10183;47.808;9.476;2023-08-08T06:58:59;12.30;99.90
20045;DHT22;10183;47.808;9.476;2023-08-08T07:01:26;12.40;99.90
20045;DHT22;10183;47.808;9.476;2023-08-08T07:03:52;12.40;99.90
20045;DHT22;10183;47.808;9.476;2023-08-08T07:06:18;12.50;99.90
20045;DHT22;10183;47.808;9.476;2023-08-08T07:08:44;12.60;99.90
20045;DHT22;10183;47.808;9.476;2023-08-08T07:11:10;12.60;99.90
20045;DHT22;10183;47.808;9.476;2023-08-08T07:13:36;12.80;99.90
20045;DHT22;10183;47.808;9.476;2023-08-08T07:16:03;12.80;99.90
20045;DHT22;10183;47.808;9.476;2023-08-08T07:18:29;13.00;99.90
20045;DHT22;10183;47.808;9.476;2023-08-08T07:20:55;13.10;99.90
20045;DHT22;10183;47.808;9.476;2023-08-08T07:23:23;13.10;99.90
20045;DHT22;10183;47.808;9.476;2023-08-08T07:25:49;13.20;99.90
20045;DHT22;10183;47.808;9.476;2023-08-08T07:28:15;13.30;99.90
20045;DHT22;10183;47.808;9.476;2023-08-08T07:30:41;13.30;99.90
20045;DHT22;10183;47.808;9.476;2023-08-08T07:33:08;13.40;99.90
20045;DHT22;10183;47.808;9.476;2023-08-08T07:35:34;13.50;99.90
20045;DHT22;10183;47.808;9.476;2023-08-08T07:38:02;13.50;99.90
20045;DHT22;10183;47.808;9.476;2023-08-08T07:40:28;13.70;99.90
20045;DHT22;10183;47.808;9.476;2023-08-08T07:42:55;13.80;99.90
20045;DHT22;10183;47.808;9.476;2023-08-08T07:45:21;13.60;99.90
20045;DHT22;10183;47.808;9.476;2023-08-08T07:47:47;13.80;99.90
20045;DHT22;10183;47.808;9.476;2023-08-08T07:50:14;13.90;99.90
20045;DHT22;10183;47.808;9.476;2023-08-08T07:52:40;13.90;99.90
20045;DHT22;10183;47.808;9.476;2023-08-08T07:55:06;14.10;99.90
20045;DHT22;10183;47.808;9.476;2023-08-08T07:57:33;14.00;99.90
20045;DHT22;10183;47.808;9.476;2023-08-08T08:00:03;14.10;99.90
20045;DHT22;10183;47.808;9.476;2023-08-08T08:02:42;14.20;99.90
20045;DHT22;10183;47.808;9.476;2023-08-08T08:05:09;14.30;99.90
20045;DHT22;10183;47.808;9.476;2023-08-08T08:07:36;14.00;99.90
20045;DHT22;10183;47.808;9.476;2023-08-08T08:10:03;14.30;99.90
20045;DHT22;10183;47.808;9.476;2023-08-08T08:12:30;14.40;99.90
20045;DHT22;10183;47.808;9.476;2023-08-08T08:14:57;14.30;99.90
20045;DHT22;10183;47.808;9.476;2023-08-08T08:17:23;14.60;99.90
20045;DHT22;10183;47.808;9.476;2023-08-08T08:19:50;15.00;99.90
20045;DHT22;10183;47.808;9.476;2023-08-08T08:22:17;14.90;99.90
20045;DHT22;10183;47.808;9.476;2023-08-08T08:24:43;14.90;99.90
20045;DHT22;10183;47.808;9.476;2023-08-08T08:27:10;15.10;99.90
20045;DHT22;10183;47.808;9.476;2023-08-08T08:29:36;15.20;99.90
20045;DHT22;10183;47.808;9.476;2023-08-08T08:32:02;15.10;99.90
20045;DHT22;10183;47.808;9.476;2023-08-08T08:34:28;15.10;99.90
20045;DHT22;10183;47.808;9.476;2023-08-08T08:36:54;15.20;99.90
20045;DHT22;10183;47.808;9.476;2023-08-08T08:39:20;15.10;99.90
20045;DHT22;10183;47.808;9.476;2023-08-08T08:41:49;14.90;99.90
20045;DHT22;10183;47.808;9.476;2023-08-08T08:44:21;15.20;99.90
20045;DHT22;10183;47.808;9.476;2023-08-08T08:46:48;15.50;99.90
20045;DHT22;10183;47.808;9.476;2023-08-08T08:49:17;15.40;99.90
20045;DHT22;10183;47.808;9.476;2023-08-08T08:51:44;15.40;99.90
20045;DHT22;10183;47.808;9.476;2023-08-08T08:54:11;15.50;99.90
20045;DHT22;10183;47.808;9.476;2023-08-08T08:56:37;15.70;99.90
20045;DHT22;10183;47.808;9.476;2023-08-08T08:59:03;15.80;99.90
20045;DHT22;10183;47.808;9.476;2023-08-08T09:01:30;15.60;99.90
20045;DHT22;10183;47.808;9.476;2023-08-08T09:03:57;15.80;99.90
20045;DHT22;10183;47.808;9.476;2023-08-08T09:06:24;15.60;99.90
20045;DHT22;10183;47.808;9.476;2023-08-08T09:08:57;15.80;99.90
20045;DHT22;10183;47.808;9.476;2023-08-08T09:11:24;16.10;99.90
20045;DHT22;10183;47.808;9.476;2023-08-08T09:13:51;16.20;99.90
20045;DHT22;10183;47.808;9.476;2023-08-08T09:16:17;15.80;99.90
20045;DHT22;10183;47.808;9.476;2023-08-08T09:18:43;16.00;99.90
20045;DHT22;10183;47.808;9.476;2023-08-08T09:21:10;16.30;99.90
20045;DHT22;10183;47.808;9.476;2023-08-08T09:23:37;16.40;99.90
20045;DHT22;10183;47.808;9.476;2023-08-08T09:26:04;16.50;99.90
20045;DHT22;10183;47.808;9.476;2023-08-08T09:28:31;16.30;99.90
20045;DHT22;10183;47.808;9.476;2023-08-08T09:30:58;16.60;99.90
20045;DHT22;10183;47.808;9.476;2023-08-08T09:33:29;16.80;99.90
20045;DHT22;10183;47.808;9.476;2023-08-08T09:35:56;16.60;99.90
20045;DHT22;10183;47.808;9.476;2023-08-08T09:38:22;17.00;99.90
20045;DHT22;10183;47.808;9.476;2023-08-08T09:40:50;17.10;99.90
20045;DHT22;10183;47.808;9.476;2023-08-08T09:43:17;17.20;99.90
20045;DHT22;10183;47.808;9.476;2023-08-08T09:45:43;16.90;99.90
20045;DHT22;10183;47.808;9.476;2023-08-08T09:48:10;17.00;99.90
20045;DHT22;10183;47.808;9.476;2023-08-08T09:50:36;17.10;99.90
20045;DHT22;10183;47.808;9.476;2023-08-08T09:53:04;17.40;99.90
20045;DHT22;10183;47.808;9.476;2023-08-08T09:55:32;17.30;99.90
20045;DHT22;10183;47.808;9.476;2023-08-08T09:57:59;16.80;99.90
20045;DHT22;10183;47.808;9.476;2023-08-08T10:00:26;16.90;99.90
20045;DHT22;10183;47.808;9.476;2023-08-08T10:02:54;16.40;99.90
20045;DHT22;10183;47.808;9.476;2023-08-08T10:05:21;16.40;99.90
20045;DHT22;10183;47.808;9.476;2023-08-08T10:07:47;16.60;99.90
20045;DHT22;10183;47.808;9.476;2023-08-08T10:10:14;16.60;99.90
20045;DHT22;10183;47.808;9.476;2023-08-08T10:12:41;16.70;99.90
20045;DHT22;10183;47.808;9.476;2023-08-08T10:15:11;17.00;99.90
20045;DHT22;10183;47.808;9.476;2023-08-08T10:17:38;17.30;99.90
20045;DHT22;10183;47.808;9.476;2023-08-08T10:20:07;17.30;99.90
20045;DHT22;10183;47.808;9.476;2023-08-08T10:22:46;17.60;99.90
20045;DHT22;10183;47.808;9.476;2023-08-08T10:25:19;17.40;99.90
20045;DHT22;10183;47.808;9.476;2023-08-08T10:27:48;17.80;99.90
20045;DHT22;10183;47.808;9.476;2023-08-08T10:30:14;18.20;99.90
20045;DHT22;10183;47.808;9.476;2023-08-08T10:32:45;18.00;99.90
20045;DHT22;10183;47.808;9.476;2023-08-08T10:35:14;18.30;99.90
20045;DHT22;10183;47.808;9.476;2023-08-08T10:37:52;18.80;99.90
20045;DHT22;10183;47.808;9.476;2023-08-08T10:40:19;18.70;99.90
20045;DHT22;10183;47.808;9.476;2023-08-08T10:42:46;18.80;99.90
20045;DHT22;10183;47.808;9.476;2023-08-08T10:45:14;18.20;99.90
20045;DHT22;10183;47.808;9.476;2023-08-08T10:47:42;18.30;99.90
20045;DHT22;10183;47.808;9.476;2023-08-08T10:50:16;17.90;99.90
20045;DHT22;10183;47.808;9.476;2023-08-08T10:52:53;18.40;99.90
20045;DHT22;10183;47.808;9.476;2023-08-08T10:55:36;18.70;99.90
20045;DHT22;10183;47.808;9.476;2023-08-08T10:58:07;18.70;99.90
20045;DHT22;10183;47.808;9.476;2023-08-08T11:00:36;18.70;99.90
20045;DHT22;10183;47.808;9.476;2023-08-08T11:03:03;19.00;99.90
20045;DHT22;10183;47.808;9.476;2023-08-08T11:05:33;18.90;99.90
20045;DHT22;10183;47.808;9.476;2023-08-08T11:08:00;18.70;99.90
20045;DHT22;10183;47.808;9.476;2023-08-08T11:10:27;18.40;99.90
20045;DHT22;10183;47.808;9.476;2023-08-08T11:13:01;18.50;99.90
20045;DHT22;10183;47.808;9.476;2023-08-08T11:15:29;18.70;99.90
20045;DHT22;10183;47.808;9.476;2023-08-08T11:17:58;19.40;99.90
20045;DHT22;10183;47.808;9.476;2023-08-08T11:20:28;19.40;99.90
20045;DHT22;10183;47.808;9.476;2023-08-08T11:22:56;18.90;99.90
20045;DHT22;10183;47.808;9.476;2023-08-08T11:25:25;18.80;99.90
20045;DHT22;10183;47.808;9.476;2023-08-08T11:27:53;19.10;99.90
20045;DHT22;10183;47.808;9.476;2023-08-08T11:30:21;19.50;99.90
20045;DHT22;10183;47.808;9.476;2023-08-08T11:32:49;19.80;99.90
20045;DHT22;10183;47.808;9.476;2023-08-08T11:35:25;20.40;99.90
20045;DHT22;10183;47.808;9.476;2023-08-08T11:37:54;20.10;99.90
20045;DHT22;10183;47.808;9.476;2023-08-08T11:40:23;19.80;99.90
20045;DHT22;10183;47.808;9.476;2023-08-08T11:42:51;19.50;99.90
20045;DHT22;10183;47.808;9.476;2023-08-08T11:45:18;19.30;99.90
20045;DHT22;10183;47.808;9.476;2023-08-08T11:47:57;19.40;99.90
20045;DHT22;10183;47.808;9.476;2023-08-08T11:50:24;19.30;99.90
20045;DHT22;10183;47.808;9.476;2023-08-08T11:52:52;19.70;99.90
20045;DHT22;10183;47.808;9.476;2023-08-08T11:55:30;19.20;99.90
20045;DHT22;10183;47.808;9.476;2023-08-08T11:57:59;19.40;99.90
20045;DHT22;10183;47.808;9.476;2023-08-08T12:00:29;19.00;99.90
20045;DHT22;10183;47.808;9.476;2023-08-08T12:02:56;20.00;99.90
20045;DHT22;10183;47.808;9.476;2023-08-08T12:05:23;20.00;99.90
20045;DHT22;10183;47.808;9.476;2023-08-08T12:07:51;19.90;99.90
20045;DHT22;10183;47.808;9.476;2023-08-08T12:10:21;19.40;99.90
20045;DHT22;10183;47.808;9.476;2023-08-08T12:12:56;19.50;99.90
20045;DHT22;10183;47.808;9.476;2023-08-08T12:15:36;19.50;99.90
20045;DHT22;10183;47.808;9.476;2023-08-08T12:18:03;19.30;99.90
20045;DHT22;10183;47.808;9.476;2023-08-08T12:20:31;20.10;99.90
20045;DHT22;10183;47.808;9.476;2023-08-08T12:22:58;20.60;99.90
20045;DHT22;10183;47.808;9.476;2023-08-08T12:25:26;20.60;99.90
20045;DHT22;10183;47.808;9.476;2023-08-08T12:27:52;21.40;99.90
20045;DHT22;10183;47.808;9.476;2023-08-08T12:30:18;21.70;99.90
20045;DHT22;10183;47.808;9.476;2023-08-08T12:32:45;21.80;99.90
20045;DHT22;10183;47.808;9.476;2023-08-08T12:35:11;21.80;99.90
20045;DHT22;10183;47.808;9.476;2023-08-08T12:37:37;20.40;99.90
20045;DHT22;10183;47.808;9.476;2023-08-08T12:40:04;20.00;99.90
20045;DHT22;10183;47.808;9.476;2023-08-08T12:42:32;19.90;99.90
20045;DHT22;10183;47.808;9.476;2023-08-08T12:44:58;20.80;99.90
20045;DHT22;10183;47.808;9.476;2023-08-08T12:47:24;21.20;99.90
20045;DHT22;10183;47.808;9.476;2023-08-08T12:49:50;20.30;99.90
20045;DHT22;10183;47.808;9.476;2023-08-08T12:52:16;21.20;99.90
20045;DHT22;10183;47.808;9.476;2023-08-08T12:54:43;21.00;99.90
20045;DHT22;10183;47.808;9.476;2023-08-08T12:57:09;21.30;99.90
20045;DHT22;10183;47.808;9.476;2023-08-08T12:59:36;21.70;99.90
20045;DHT22;10183;47.808;9.476;2023-08-08T13:02:03;22.10;99.90
20045;DHT22;10183;47.808;9.476;2023-08-08T13:04:29;21.50;99.90
20045;DHT22;10183;47.808;9.476;2023-08-08T13:06:56;21.50;99.90
20045;DHT22;10183;47.808;9.476;2023-08-08T13:09:22;21.10;99.90
20045;DHT22;10183;47.808;9.476;2023-08-08T13:11:48;20.80;97.20
20045;DHT22;10183;47.808;9.476;2023-08-08T13:14:15;20.30;99.90
20045;DHT22;10183;47.808;9.476;2023-08-08T13:16:41;21.40;99.90
20045;DHT22;10183;47.808;9.476;2023-08-08T13:19:07;23.10;85.30
20045;DHT22;10183;47.808;9.476;2023-08-08T13:21:33;22.80;72.40
20045;DHT22;10183;47.808;9.476;2023-08-08T13:24:00;22.10;98.30
20045;DHT22;10183;47.808;9.476;2023-08-08T13:26:27;22.70;94.80
20045;DHT22;10183;47.808;9.476;2023-08-08T13:28:53;22.10;92.10
20045;DHT22;10183;47.808;9.476;2023-08-08T13:31:20;22.30;79.00
20045;DHT22;10183;47.808;9.476;2023-08-08T13:33:47;20.90;96.80
20045;DHT22;10183;47.808;9.476;2023-08-08T13:36:13;20.10;94.10
20045;DHT22;10183;47.808;9.476;2023-08-08T13:38:40;20.50;99.90
20045;DHT22;10183;47.808;9.476;2023-08-08T13:41:07;20.50;99.90
20045;DHT22;10183;47.808;9.476;2023-08-08T13:43:33;21.90;99.90
20045;DHT22;10183;47.808;9.476;2023-08-08T13:46:00;23.30;56.80
20045;DHT22;10183;47.808;9.476;2023-08-08T13:48:26;22.80;54.10
20045;DHT22;10183;47.808;9.476;2023-08-08T13:50:52;22.60;92.50
20045;DHT22;10183;47.808;9.476;2023-08-08T13:53:19;21.60;99.90
20045;DHT22;10183;47.808;9.476;2023-08-08T13:55:45;20.80;99.90
20045;DHT22;10183;47.808;9.476;2023-08-08T13:58:11;20.20;99.90
20045;DHT22;10183;47.808;9.476;2023-08-08T14:00:37;20.70;99.90
20045;DHT22;10183;47.808;9.476;2023-08-08T14:03:04;21.90;87.60
20045;DHT22;10183;47.808;9.476;2023-08-08T14:05:31;22.00;71.00
20045;DHT22;10183;47.808;9.476;2023-08-08T14:07:57;21.70;97.30
20045;DHT22;10183;47.808;9.476;2023-08-08T14:10:23;21.70;74.20
20045;DHT22;10183;47.808;9.476;2023-08-08T14:12:49;21.30;95.50
20045;DHT22;10183;47.808;9.476;2023-08-08T14:15:15;20.60;96.90
20045;DHT22;10183;47.808;9.476;2023-08-08T14:17:42;20.70;94.40
20045;DHT22;10183;47.808;9.476;2023-08-08T14:20:08;21.80;99.90
20045;DHT22;10183;47.808;9.476;2023-08-08T14:22:35;21.30;83.80
20045;DHT22;10183;47.808;9.476;2023-08-08T14:25:01;21.90;99.90
20045;DHT22;10183;47.808;9.476;2023-08-08T14:27:28;21.40;99.90
20045;DHT22;10183;47.808;9.476;2023-08-08T14:29:54;22.00;90.20
20045;DHT22;10183;47.808;9.476;2023-08-08T14:32:20;22.00;99.90
20045;DHT22;10183;47.808;9.476;2023-08-08T14:34:46;21.40;99.90
20045;DHT22;10183;47.808;9.476;2023-08-08T14:37:12;21.80;99.90
20045;DHT22;10183;47.808;9.476;2023-08-08T14:39:39;22.40;99.90
20045;DHT22;10183;47.808;9.476;2023-08-08T14:42:05;23.20;87.50
20045;DHT22;10183;47.808;9.476;2023-08-08T14:44:31;22.60;67.40
20045;DHT22;10183;47.808;9.476;2023-08-08T14:46:57;21.70;91.00
20045;DHT22;10183;47.808;9.476;2023-08-08T14:49:23;21.60;77.60
20045;DHT22;10183;47.808;9.476;2023-08-08T14:51:52;21.80;96.10
20045;DHT22;10183;47.808;9.476;2023-08-08T14:54:18;20.90;99.90
20045;DHT22;10183;47.808;9.476;2023-08-08T14:56:44;19.90;99.90
20045;DHT22;10183;47.808;9.476;2023-08-08T14:59:10;21.00;99.90
20045;DHT22;10183;47.808;9.476;2023-08-08T15:01:37;23.30;99.90
20045;DHT22;10183;47.808;9.476;2023-08-08T15:04:03;24.30;64.60
20045;DHT22;10183;47.808;9.476;2023-08-08T15:06:30;25.20;29.60
20045;DHT22;10183;47.808;9.476;2023-08-08T15:08:56;25.20;24.00
20045;DHT22;10183;47.808;9.476;2023-08-08T15:11:22;25.50;26.80
20045;DHT22;10183;47.808;9.476;2023-08-08T15:13:48;24.40;16.90
20045;DHT22;10183;47.808;9.476;2023-08-08T15:16:15;23.70;99.40
20045;DHT22;10183;47.808;9.476;2023-08-08T15:18:41;24.90;63.20
20045;DHT22;10183;47.808;9.476;2023-08-08T15:21:07;24.10;25.30
20045;DHT22;10183;47.808;9.476;2023-08-08T15:23:33;25.30;28.50
20045;DHT22;10183;47.808;9.476;2023-08-08T15:26:00;24.80;24.90
20045;DHT22;10183;47.808;9.476;2023-08-08T15:28:26;24.10;49.80
20045;DHT22;10183;47.808;9.476;2023-08-08T15:30:53;24.40;54.90
20045;DHT22;10183;47.808;9.476;2023-08-08T15:33:19;24.20;19.10
20045;DHT22;10183;47.808;9.476;2023-08-08T15:35:45;23.40;51.20
20045;DHT22;10183;47.808;9.476;2023-08-08T15:38:11;23.30;44.60
20045;DHT22;10183;47.808;9.476;2023-08-08T15:40:38;24.20;26.10
20045;DHT22;10183;47.808;9.476;2023-08-08T15:43:04;24.70;50.10